METAR v bližini

 

LIPQ - Ronchi Legionari, Italy
Oddaljenost od postaje: JZ 35km
Podatki zajeti: 18/06/2019 11:20
Rahlo oblačno
Rahlo oblačno
 Veter iz smeri VJV
Veter: VJV 24 km/h
Temperatura: 29°C
Toplotni indeks: 29°C
Temp. rosišča: 16°C
Vlažnost: 45%
Tlak: 1015 hPa
Oblačnost: Rahlo oblačno
Vidljivost: 10 km
Podrobnosti o oblakih: Rahlo oblačno 914 m
2019/06/18 09:20 LIPQ 180920Z 11013KT 070V140 9999 FEW030 29/16 Q1015
LIVT - Trieste, Italy
Oddaljenost od postaje: J 49km
Podatki zajeti: 18/06/2019 10:55
Jasno
Jasno
 Veter iz smeri SV
Veter: SV 6 km/h, Sunek vetra: 39 km/h
Temperatura: 28°C
Toplotni indeks: 29°C
Temp. rosišča: 19°C
Vlažnost: 58%
Tlak: 1014 hPa
Stanje: Jasno
Vidljivost: večja od 10 km
2019/06/18 08:55 LIVT 180855Z 04003G21KT CAVOK 28/19 Q1014 RMK SKC QUK 4 QUL 3 NE VIS MAR 20 KM VIS MIN 9999
 
LIVO - Tarvisio, Italy
Oddaljenost od postaje: SSZ 49km
Podatki zajeti: 18/06/2019 10:55
Rahlo oblačno
Rahlo oblačno
 Veter iz smeri VSV
Veter: VSV 9 km/h
Temperatura: 23°C
Temp. rosišča: 15°C
Vlažnost: 61%
Tlak: 1018 hPa
Oblačnost: Rahlo oblačno
Vidljivost: 10 km
Podrobnosti o oblakih: Rahlo oblačno 762 m
2019/06/18 08:55 LIVO 180855Z 07005KT 9999 FEW025 23/15 Q1018 RMK FEW VIS MIN 9999
LIPI - Rivolto (it-Afb), Italy
Oddaljenost od postaje: ZJZ 57km
Podatki zajeti: 18/06/2019 10:55
Jasno
Jasno
 Veter iz smeri spremenljiv
Veter: spremenljiv 0 km/h
Temperatura: 29°C
Toplotni indeks: 29°C
Temp. rosišča: 15°C
Vlažnost: 43%
Tlak: 1015 hPa
Stanje: Jasno
Vidljivost: večja od 10 km
2019/06/18 08:55 LIPI 180855Z /////KT CAVOK 29/15 Q1015 RMK SKC VIS MIN 9999 WIND THR06 09004KT WIND THR24 VRB04KT BLU
 
LJLJ - Ljubljana/Brnik, Slovenia
Oddaljenost od postaje: VSV 59km
Podatki zajeti: 18/06/2019 11:30
Pretežno oblačno
Pretežno oblačno
 Veter iz smeri calm
Veter: Tišina
Temperatura: 23°C
Temp. rosišča: 18°C
Vlažnost: 74%
Tlak: 1018 hPa
Oblačnost: Pretežno oblačno
Vidljivost: 10 km
Podrobnosti o oblakih: Delno oblačno 914 m
Pretežno oblačno 3048 m
2019/06/18 09:30 LJLJ 180930Z 00000KT 9999 SCT030 BKN100 23/18 Q1018 NOSIG
LJPZ - Portoroz, Slovenia
Oddaljenost od postaje: J 68km
Podatki zajeti: 18/06/2019 11:30
Rahlo oblačno
Rahlo oblačno
 Veter iz smeri ZSZ
Veter: ZSZ 9 km/h
Temperatura: 28°C
Toplotni indeks: 28°C
Temp. rosišča: 17°C
Vlažnost: 51%
Tlak: 1014 hPa
Oblačnost: Rahlo oblačno
Vidljivost: 10 km
Podrobnosti o oblakih: Rahlo oblačno 1280 m
2019/06/18 09:30 LJPZ 180930Z 30005KT 260V330 9999 FEW042 28/17 Q1014
 
LOWK - Klagenfurt(Civ/M, Austria
Oddaljenost od postaje: SV 78km
Podatki zajeti: 18/06/2019 11:20
Delno oblačno
Delno oblačno
 Veter iz smeri V
Veter: V 9 km/h
Temperatura: 23°C
Temp. rosišča: 15°C
Vlažnost: 61%
Tlak: 1018 hPa
Oblačnost: Delno oblačno
Vidljivost: 10 km
Podrobnosti o oblakih: Rahlo oblačno 1219 m
Delno oblačno 4267 m
2019/06/18 09:20 LOWK 180920Z 10005KT 050V140 9999 FEW040 SCT140 23/15 Q1018 NOSIG
LIYW - Aviano (usaf), Italy
Oddaljenost od postaje: Z 86km
Podatki zajeti: 20/10/2015 15:58
Ni posodobljen
Jasno
Jasno
 Veter iz smeri JJZ
Veter: JJZ 6 km/h
Temperatura: 17°C
Temp. rosišča: 3°C
Vlažnost: 39%
Tlak: 1016.3 hPa
Oblačnost: Jasno
Vidljivost: 10 km
2015/10/20 13:58 LIYW 201358Z AUTO 21003KT 9999 CLR 17/03 A3001 RMK AO2 SLP167 T01660029
 
LIPA - Aviano (it/Us-Af, Italy
Oddaljenost od postaje: Z 89km
Podatki zajeti: 18/06/2019 10:55
Rahlo oblačno
Rahlo oblačno
 Veter iz smeri J
Veter: J 6 km/h
Temperatura: 28°C
Toplotni indeks: 29°C
Temp. rosišča: 19°C
Vlažnost: 58%
Tlak: 1015 hPa
Oblačnost: Rahlo oblačno
Vidljivost: 10 km
Podrobnosti o oblakih: Rahlo oblačno 2438 m
2019/06/18 08:55 LIPA 180855Z 19003KT 9999 FEW080 28/19 Q1015 RMK FEW VIS MIN 9999 WIND THR05 /////KT WIND THR23 /////KT A2999 BLU
LDRI - Rijeka/Omisalj, Croatia
Oddaljenost od postaje: JV 115km
Podatki zajeti: 18/06/2019 11:30
Rahlo oblačno
Rahlo oblačno
 Veter iz smeri spremenljiv
Veter: spremenljiv 9 km/h
Temperatura: 28°C
Toplotni indeks: 28°C
Temp. rosišča: 15°C
Vlažnost: 45%
Tlak: 1015 hPa
Oblačnost: Rahlo oblačno
Vidljivost: 10 km
Podrobnosti o oblakih: Rahlo oblačno 1219 m
2019/06/18 09:30 LDRI 180930Z VRB05KT 9999 FEW040 28/15 Q1015
 
LIPZ - Venezia/Tessera, Italy
Oddaljenost od postaje: ZJZ 127km
Podatki zajeti: 18/06/2019 11:20
Jasno
Jasno
 Veter iz smeri V
Veter: V 15 km/h
Temperatura: 28°C
Toplotni indeks: 28°C
Temp. rosišča: 16°C
Vlažnost: 48%
Tlak: 1015 hPa
Stanje: Jasno
Vidljivost: večja od 10 km
2019/06/18 09:20 LIPZ 180920Z 10008KT CAVOK 28/16 Q1015 NOSIG
LDPL - Pula, Croatia
Oddaljenost od postaje: J 133km
Podatki zajeti: 18/06/2019 11:30
Jasno
Jasno
 Veter iz smeri V
Veter: V 19 km/h
Temperatura: 28°C
Toplotni indeks: 28°C
Temp. rosišča: 16°C
Vlažnost: 48%
Tlak: 1015 hPa
Stanje: Jasno
Vidljivost: večja od 10 km
2019/06/18 09:30 LDPL 180930Z 08010KT CAVOK 28/16 Q1015 NOSIG
 
LIPS - Istrana (it-Afb), Italy
Oddaljenost od postaje: ZJZ 136km
Podatki zajeti: 18/06/2019 10:55
Rahlo oblačno
Rahlo oblačno
 Veter iz smeri V
Veter: V 6 km/h
Temperatura: 29°C
Toplotni indeks: 31°C
Temp. rosišča: 20°C
Vlažnost: 58%
Tlak: 1015 hPa
Oblačnost: Rahlo oblačno
Vidljivost: 10 km
Podrobnosti o oblakih: Rahlo oblačno 762 m
2019/06/18 08:55 LIPS 180855Z 09003KT 9999 FEW025TCU 29/20 Q1015 RMK FEW VIS MIN 9999 WIND THR26 00000KT WIND THR08 09004KT BLU
LIVD - Dobbiaco, Italy
Oddaljenost od postaje: ZSZ 137km
Podatki zajeti: 18/06/2019 10:55
Delno oblačno
Delno oblačno
 Veter iz smeri spremenljiv
Veter: spremenljiv 0 km/h
Temperatura: 20°C
Temp. rosišča: 9°C
Vlažnost: 49%
Tlak: 1021 hPa
Oblačnost: Delno oblačno
Vidljivost: 10 km
Podrobnosti o oblakih: Delno oblačno 457 m
2019/06/18 08:55 LIVD 180855Z /////KT 9999 SCT015 20/09 Q1021 RMK SCT VIS MIN 9999
 
LJCE - Cerklje, Slovenia
Oddaljenost od postaje: V 139km
Podatki zajeti: 18/06/2019 11:30
Pretežno oblačno
Pretežno oblačno
 Veter iz smeri spremenljiv
Veter: spremenljiv 4 km/h
Temperatura: 23°C
Temp. rosišča: 18°C
Vlažnost: 74%
Tlak: 1017 hPa
Oblačnost: Pretežno oblačno
Vidljivost: 10 km
Podrobnosti o oblakih: Delno oblačno 518 m
Pretežno oblačno 1219 m
2019/06/18 09:30 LJCE 180930Z VRB02KT 9999 SCT017 BKN040 23/18 Q1017
LOXZ - Zeltweg (mil), Austria
Oddaljenost od postaje: SSV 147km
Podatki zajeti: 18/06/2019 11:20
Delno oblačno
Delno oblačno
 Veter iz smeri spremenljiv
Veter: spremenljiv 6 km/h
Temperatura: 21°C
Temp. rosišča: 14°C
Vlažnost: 64%
Tlak: 1019 hPa
Oblačnost: Delno oblačno
Podrobnosti o oblakih: Rahlo oblačno 518 m
Delno oblačno 5486 m
2019/06/18 09:20 LOXZ 180920Z VRB03KT 20KM FEW017CU SCT180AC 21/14 Q1019 NOSIG